Thunder radar more information blitzortung!


Radar de pluja more information rain snow radar


Visita la nostra xarxa de llocs de meteo:

Template documentation
and downloads

And another site



No particular awareness of the weather is required.    There are no Weather-warnings

Pagina Historial Weather Underground text

Diari Resum Agost 17, 2017 Unitats:  Mètric    Imperial   Tant
« Previous Dia
SegĂźent Dia »
Diari Setmana Mensual Anual Personalitzada
  Maxima: Minima: Media:
Temperatura: 34.7 °C 20.1 °C 26.3 °C
Punt de rosada: 18.5 °C 14.2 °C 16.1 °C
Humitat: 72 % 34 % 55 %
Wind Speed: 20.9 km/h 0.0 km/h 5.4 km/h
RĂ fegues de vent: 20.9 km/h - -
Vent:- - SSW
Pression baro: 1018.8 hPa 1014.8 hPa -
Precipitacions: 0.0 mm    
Historical Graphs
 
 
Dades de taula per Agost 17, 2017
Temps Temperatura Punt de rosada Pression baro Vent Wind Speed RĂ fegues de vent Humitat Rainfall Rate (Hourly)
00:02 22.8 °C 14.6 °C 1017.8 hPa Calm     60 % 0.0 mm
00:07 22.8 °C 14.6 °C 1017.8 hPa Calm     60 % 0.0 mm
00:12 22.8 °C 14.6 °C 1017.8 hPa Calm     60 % 0.0 mm
00:17 22.7 °C 14.6 °C 1017.8 hPa Calm     60 % 0.0 mm
00:22 22.7 °C 14.6 °C 1017.8 hPa Calm     60 % 0.0 mm
00:27 22.6 °C 14.4 °C 1017.8 hPa Calm     60 % 0.0 mm
00:32 22.6 °C 14.4 °C 1017.8 hPa Calm     60 % 0.0 mm
00:37 22.6 °C 14.4 °C 1017.8 hPa Calm     60 % 0.0 mm
00:42 22.5 °C 14.3 °C 1017.8 hPa Calm     60 % 0.0 mm
00:47 22.5 °C 14.3 °C 1017.8 hPa Calm     60 % 0.0 mm
00:52 22.5 °C 14.3 °C 1017.8 hPa Calm     60 % 0.0 mm
00:57 22.5 °C 14.6 °C 1017.8 hPa Calm     61 % 0.0 mm
01:02 22.4 °C 14.5 °C 1017.8 hPa Calm     61 % 0.0 mm
01:07 22.4 °C 14.5 °C 1017.8 hPa NNW 2.3 km/h   61 % 0.0 mm
01:12 22.5 °C 14.6 °C 1017.8 hPa Calm     61 % 0.0 mm
01:17 22.4 °C 14.5 °C 1017.8 hPa Calm     61 % 0.0 mm
01:22 22.4 °C 14.5 °C 1017.8 hPa Calm     61 % 0.0 mm
01:27 22.3 °C 14.4 °C 1017.8 hPa Calm     61 % 0.0 mm
01:32 22.3 °C 14.4 °C 1017.8 hPa Calm     61 % 0.0 mm
01:37 22.1 °C 14.2 °C 1017.8 hPa Calm     61 % 0.0 mm
01:42 22.0 °C 14.4 °C 1017.8 hPa Calm     62 % 0.0 mm
01:47 21.8 °C 14.4 °C 1017.8 hPa Calm     63 % 0.0 mm
01:52 21.7 °C 14.3 °C 1017.8 hPa Calm     63 % 0.0 mm
01:57 21.7 °C 14.3 °C 1017.8 hPa Calm     63 % 0.0 mm
02:02 21.7 °C 14.3 °C 1017.8 hPa Calm     63 % 0.0 mm
02:07 21.6 °C 14.5 °C 1017.8 hPa Calm     64 % 0.0 mm
02:12 21.5 °C 14.4 °C 1017.8 hPa Calm     64 % 0.0 mm
02:17 21.5 °C 14.4 °C 1017.8 hPa Calm     64 % 0.0 mm
02:22 21.5 °C 14.4 °C 1017.8 hPa Calm     64 % 0.0 mm
02:27 21.5 °C 14.7 °C 1017.8 hPa Calm     65 % 0.0 mm
02:32 21.4 °C 14.6 °C 1017.8 hPa Calm     65 % 0.0 mm
02:37 21.3 °C 14.4 °C 1017.8 hPa WSW 2.3 km/h 2.3 km/h 65 % 0.0 mm
02:42 21.3 °C 14.4 °C 1017.8 hPa SW 3.7 km/h 3.7 km/h 65 % 0.0 mm
02:47 21.2 °C 14.3 °C 1017.8 hPa SW 3.7 km/h 3.7 km/h 65 % 0.0 mm
02:52 21.2 °C 14.3 °C 1017.8 hPa SW 3.7 km/h 3.7 km/h 65 % 0.0 mm
02:57 21.1 °C 14.5 °C 1017.8 hPa WSW 3.9 km/h 3.9 km/h 66 % 0.0 mm
03:02 21.0 °C 14.4 °C 1017.8 hPa WSW 1.9 km/h   66 % 0.0 mm
03:07 21.0 °C 14.4 °C 1017.8 hPa Calm     66 % 0.0 mm
03:08 21.0 °C 14.4 °C 1017.8 hPa Calm     66 % 0.0 mm
03:13 21.2 °C 14.6 °C 1017.8 hPa SW 3.7 km/h 3.7 km/h 66 % 0.0 mm
03:18 21.2 °C 14.6 °C 1017.8 hPa Calm     66 % 0.0 mm
03:23 21.2 °C 14.6 °C 1017.8 hPa SW 2.3 km/h 2.3 km/h 66 % 0.0 mm
03:28 21.2 °C 14.6 °C 1017.8 hPa SW 1.9 km/h 1.9 km/h 66 % 0.0 mm
03:33 21.1 °C 14.5 °C 1017.8 hPa Calm     66 % 0.0 mm
03:38 21.1 °C 14.7 °C 1017.8 hPa Calm     67 % 0.0 mm
03:43 21.1 °C 14.7 °C 1017.8 hPa NNE 1.9 km/h 1.9 km/h 67 % 0.0 mm
03:48 21.0 °C 14.4 °C 1017.8 hPa Calm     66 % 0.0 mm
03:53 21.0 °C 14.4 °C 1017.8 hPa SW 1.9 km/h 2.3 km/h 66 % 0.0 mm
03:58 20.9 °C 14.6 °C 1017.8 hPa Calm     67 % 0.0 mm
04:03 20.8 °C 14.4 °C 1017.8 hPa Calm     67 % 0.0 mm
04:08 20.7 °C 14.3 °C 1017.8 hPa Calm     67 % 0.0 mm
04:13 20.6 °C 14.5 °C 1017.8 hPa Calm     68 % 0.0 mm
04:18 20.7 °C 14.6 °C 1017.8 hPa SW 2.3 km/h 2.3 km/h 68 % 0.0 mm
04:23 20.7 °C 14.6 °C 1017.8 hPa Calm     68 % 0.0 mm
04:28 20.7 °C 14.6 °C 1017.8 hPa Calm     68 % 0.0 mm
04:33 20.8 °C 14.7 °C 1017.8 hPa SW 2.6 km/h 2.6 km/h 68 % 0.0 mm
04:38 20.8 °C 14.7 °C 1017.8 hPa Calm     68 % 0.0 mm
04:43 20.9 °C 14.8 °C 1017.8 hPa SW 3.7 km/h 3.7 km/h 68 % 0.0 mm
04:48 20.9 °C 14.8 °C 1017.8 hPa Calm     68 % 0.0 mm
04:53 20.8 °C 14.7 °C 1017.8 hPa SW 1.9 km/h 1.9 km/h 68 % 0.0 mm
04:58 20.8 °C 14.7 °C 1017.8 hPa Calm     68 % 0.0 mm
05:03 20.7 °C 14.6 °C 1017.8 hPa Calm     68 % 0.0 mm
05:08 20.8 °C 14.7 °C 1017.8 hPa Calm     68 % 0.0 mm
05:13 20.8 °C 14.9 °C 1017.8 hPa Calm     69 % 0.0 mm
05:18 20.8 °C 14.9 °C 1017.8 hPa Calm     69 % 0.0 mm
05:20 20.8 °C 14.9 °C 1017.8 hPa Calm     69 % 0.0 mm
05:22 20.8 °C 14.9 °C 1017.8 hPa Calm     69 % 0.0 mm
05:25 20.9 °C 15.0 °C 1017.8 hPa Calm     69 % 0.0 mm
05:30 20.9 °C 15.0 °C 1017.8 hPa Calm     69 % 0.0 mm
05:32 20.9 °C 15.0 °C 1017.8 hPa Calm     69 % 0.0 mm
05:42 20.9 °C 15.0 °C 1017.8 hPa Calm     69 % 0.0 mm
05:47 20.9 °C 15.0 °C 1017.8 hPa Calm     69 % 0.0 mm
05:52 20.9 °C 15.2 °C 1017.8 hPa Calm     70 % 0.0 mm
05:57 20.8 °C 14.9 °C 1017.8 hPa Calm     69 % 0.0 mm
06:02 20.8 °C 15.1 °C 1017.8 hPa Calm     70 % 0.0 mm
06:07 20.7 °C 15.1 °C 1017.8 hPa Calm     70 % 0.0 mm
06:12 20.7 °C 15.1 °C 1017.8 hPa Calm     70 % 0.0 mm
06:17 20.7 °C 15.1 °C 1017.8 hPa Calm     70 % 0.0 mm
06:22 20.7 °C 15.1 °C 1017.8 hPa North 2.3 km/h   70 % 0.0 mm
06:27 20.6 °C 14.9 °C 1017.8 hPa Calm     70 % 0.0 mm
06:32 20.6 °C 14.9 °C 1018.8 hPa North 1.9 km/h 1.9 km/h 70 % 0.0 mm
06:37 20.6 °C 14.9 °C 1018.8 hPa Calm     70 % 0.0 mm
06:42 20.6 °C 14.9 °C 1018.8 hPa Calm     70 % 0.0 mm
06:47 20.6 °C 14.9 °C 1017.8 hPa Calm     70 % 0.0 mm
06:52 20.6 °C 14.9 °C 1017.8 hPa Calm     70 % 0.0 mm
06:57 20.6 °C 14.9 °C 1017.8 hPa North 2.3 km/h 2.3 km/h 70 % 0.0 mm
07:02 20.5 °C 15.1 °C 1017.8 hPa ENE 2.6 km/h 2.6 km/h 71 % 0.0 mm
07:07 20.4 °C 14.9 °C 1017.8 hPa SE 1.9 km/h 1.9 km/h 71 % 0.0 mm
07:12 20.3 °C 14.9 °C 1017.8 hPa SE 1.9 km/h   71 % 0.0 mm
07:17 20.3 °C 14.9 °C 1017.8 hPa Calm     71 % 0.0 mm
07:22 20.1 °C 14.7 °C 1017.8 hPa WSW 1.9 km/h 1.9 km/h 71 % 0.0 mm
07:27 20.1 °C 14.9 °C 1017.8 hPa Calm     72 % 0.0 mm
07:32 20.1 °C 14.9 °C 1016.8 hPa Calm     72 % 0.0 mm
07:37 20.2 °C 15.0 °C 1016.8 hPa Calm     72 % 0.0 mm
07:42 20.2 °C 15.0 °C 1016.8 hPa WSW 1.9 km/h 1.9 km/h 72 % 0.0 mm
07:47 20.2 °C 15.0 °C 1016.8 hPa SW 3.7 km/h 3.7 km/h 72 % 0.0 mm
07:48 20.2 °C 15.0 °C 1016.8 hPa SW 1.9 km/h 1.9 km/h 72 % 0.0 mm
07:53 20.2 °C 15.0 °C 1016.8 hPa South 2.3 km/h 2.3 km/h 72 % 0.0 mm
07:58 20.4 °C 15.2 °C 1017.8 hPa SW 3.7 km/h 3.7 km/h 72 % 0.0 mm
08:03 20.5 °C 15.3 °C 1017.8 hPa SW 3.7 km/h 3.7 km/h 72 % 0.0 mm
08:08 20.6 °C 15.4 °C 1017.8 hPa SW 3.7 km/h 3.7 km/h 72 % 0.0 mm
08:13 20.7 °C 15.4 °C 1017.8 hPa SW 3.7 km/h 3.7 km/h 72 % 0.0 mm
08:18 20.9 °C 15.7 °C 1017.8 hPa SW 1.9 km/h   72 % 0.0 mm
08:23 21.2 °C 15.9 °C 1017.8 hPa SW 2.3 km/h 2.3 km/h 72 % 0.0 mm
08:28 21.4 °C 15.9 °C 1016.8 hPa SW 3.7 km/h 3.7 km/h 71 % 0.0 mm
08:33 21.5 °C 16.0 °C 1016.8 hPa WSW 3.7 km/h 3.7 km/h 71 % 0.0 mm
08:38 21.7 °C 16.0 °C 1016.8 hPa SW 1.9 km/h 1.9 km/h 70 % 0.0 mm
08:43 22.1 °C 16.2 °C 1017.8 hPa Calm     69 % 0.0 mm
08:48 22.9 °C 16.9 °C 1017.8 hPa SE 1.9 km/h   69 % 0.0 mm
08:53 23.3 °C 17.1 °C 1017.8 hPa ESE 3.7 km/h 3.7 km/h 68 % 0.0 mm
08:58 24.0 °C 17.3 °C 1017.8 hPa East 3.2 km/h 3.2 km/h 66 % 0.0 mm
09:03 23.7 °C 17.2 °C 1017.8 hPa ENE 3.7 km/h 3.7 km/h 67 % 0.0 mm
09:08 24.0 °C 17.0 °C 1017.8 hPa NE 3.7 km/h 3.7 km/h 65 % 0.0 mm
09:13 24.3 °C 17.3 °C 1017.8 hPa NNE 3.7 km/h 3.7 km/h 65 % 0.0 mm
09:18 24.6 °C 17.3 °C 1017.8 hPa ENE 4.7 km/h 4.7 km/h 64 % 0.0 mm
09:23 25.0 °C 17.2 °C 1017.8 hPa ENE 3.7 km/h 3.7 km/h 62 % 0.0 mm
09:28 25.4 °C 17.6 °C 1017.8 hPa NW 2.6 km/h   62 % 0.0 mm
09:33 25.8 °C 17.7 °C 1017.8 hPa NW 2.6 km/h 2.6 km/h 61 % 0.0 mm
09:38 25.8 °C 17.7 °C 1017.8 hPa North 1.9 km/h 1.9 km/h 61 % 0.0 mm
09:43 25.9 °C 17.6 °C 1017.8 hPa ENE 3.7 km/h 3.7 km/h 60 % 0.0 mm
09:48 25.7 °C 17.1 °C 1017.8 hPa ENE 3.7 km/h 3.7 km/h 59 % 0.0 mm
09:53 26.0 °C 17.6 °C 1017.8 hPa ENE 1.9 km/h 1.9 km/h 60 % 0.0 mm
09:58 26.3 °C 17.7 °C 1017.8 hPa SSW 3.7 km/h 3.7 km/h 59 % 0.0 mm
10:03 26.7 °C 18.0 °C 1017.8 hPa West 5.6 km/h 5.6 km/h 59 % 0.0 mm
10:08 26.5 °C 17.6 °C 1017.8 hPa SW 1.9 km/h   58 % 0.0 mm
10:13 27.2 °C 17.9 °C 1017.8 hPa WSW 3.7 km/h 3.7 km/h 57 % 0.0 mm
10:18 27.4 °C 17.8 °C 1017.8 hPa SE 3.7 km/h 3.7 km/h 56 % 0.0 mm
10:23 27.9 °C 18.0 °C 1017.8 hPa WSW 5.0 km/h 5.0 km/h 55 % 0.0 mm
10:28 28.0 °C 17.8 °C 1017.8 hPa SW 6.9 km/h 6.9 km/h 54 % 0.0 mm
10:33 28.0 °C 17.2 °C 1017.8 hPa SSE 5.6 km/h 5.6 km/h 52 % 0.0 mm
10:38 28.1 °C 17.3 °C 1017.8 hPa SSW 5.6 km/h 5.6 km/h 52 % 0.0 mm
10:43 28.4 °C 17.3 °C 1017.8 hPa South 5.6 km/h 5.6 km/h 51 % 0.0 mm
10:48 28.7 °C 17.6 °C 1017.8 hPa SSW 7.4 km/h 7.4 km/h 51 % 0.0 mm
10:53 28.8 °C 17.7 °C 1017.8 hPa South 5.6 km/h 6.1 km/h 51 % 0.0 mm
10:58 29.2 °C 17.4 °C 1017.8 hPa SSE 9.3 km/h 9.3 km/h 49 % 0.0 mm
11:03 29.6 °C 17.4 °C 1017.8 hPa WSW 9.3 km/h 9.3 km/h 48 % 0.0 mm
11:08 30.1 °C 17.9 °C 1017.8 hPa SW 3.9 km/h 3.9 km/h 48 % 0.0 mm
11:09 30.1 °C 17.9 °C 1017.8 hPa SW 3.9 km/h 3.9 km/h 48 % 0.0 mm
11:14 30.3 °C 18.1 °C 1017.8 hPa West 14.8 km/h 14.8 km/h 48 % 0.0 mm
11:19 29.7 °C 17.5 °C 1017.8 hPa SW 5.6 km/h 5.6 km/h 48 % 0.0 mm
11:24 29.7 °C 17.5 °C 1017.8 hPa WSW 11.1 km/h 11.1 km/h 48 % 0.0 mm
11:29 30.0 °C 17.4 °C 1016.8 hPa WSW 9.0 km/h 9.0 km/h 47 % 0.0 mm
11:34 29.9 °C 17.0 °C 1016.8 hPa SW 11.1 km/h 11.1 km/h 46 % 0.0 mm
11:39 30.1 °C 16.8 °C 1016.8 hPa SW 13.0 km/h 13.0 km/h 45 % 0.0 mm
11:44 30.3 °C 17.1 °C 1017.8 hPa SSW 7.4 km/h 7.4 km/h 45 % 0.0 mm
11:49 30.5 °C 17.2 °C 1017.8 hPa SW 13.0 km/h 13.0 km/h 45 % 0.0 mm
11:54 30.7 °C 17.4 °C 1017.8 hPa WNW 5.6 km/h 5.6 km/h 45 % 0.0 mm
11:59 30.8 °C 17.5 °C 1017.8 hPa SSW 5.6 km/h 6.1 km/h 45 % 0.0 mm
12:04 31.3 °C 17.6 °C 1017.8 hPa SSW 3.7 km/h 3.9 km/h 44 % 0.0 mm
12:09 31.3 °C 17.6 °C 1017.8 hPa SW 7.4 km/h 7.4 km/h 44 % 0.0 mm
12:14 31.8 °C 18.1 °C 1017.8 hPa SW 5.6 km/h 5.6 km/h 44 % 0.0 mm
12:19 31.9 °C 17.8 °C 1017.8 hPa South 5.6 km/h 5.6 km/h 43 % 0.0 mm
12:24 32.3 °C 18.1 °C 1017.8 hPa SSE 6.1 km/h 6.1 km/h 43 % 0.0 mm
12:29 32.7 °C 18.5 °C 1016.8 hPa West 5.3 km/h 5.3 km/h 43 % 0.0 mm
12:34 32.4 °C 17.8 °C 1016.8 hPa South 9.3 km/h 9.3 km/h 42 % 0.0 mm
12:39 32.6 °C 18.0 °C 1016.8 hPa South 5.6 km/h 5.6 km/h 42 % 0.0 mm
12:44 32.3 °C 17.4 °C 1016.8 hPa South 5.6 km/h 5.6 km/h 41 % 0.0 mm
12:49 33.4 °C 17.9 °C 1016.8 hPa WSW 3.7 km/h 3.7 km/h 40 % 0.0 mm
12:54 33.5 °C 18.1 °C 1016.8 hPa SSE 7.4 km/h 7.4 km/h 40 % 0.0 mm
12:59 33.4 °C 17.6 °C 1016.8 hPa South 5.6 km/h 5.6 km/h 39 % 0.0 mm
13:04 33.2 °C 16.9 °C 1016.8 hPa South 7.4 km/h 7.4 km/h 38 % 0.0 mm
13:09 33.2 °C 17.4 °C 1016.8 hPa SW 7.9 km/h 9.0 km/h 39 % 0.0 mm
13:14 33.0 °C 17.2 °C 1016.8 hPa WSW 9.3 km/h 9.3 km/h 39 % 0.0 mm
13:19 33.6 °C 16.9 °C 1016.8 hPa SE 5.6 km/h 5.6 km/h 37 % 0.0 mm
13:24 33.7 °C 17.4 °C 1016.8 hPa ESE 7.4 km/h 7.4 km/h 38 % 0.0 mm
13:29 34.0 °C 17.3 °C 1016.8 hPa SW 7.4 km/h 7.4 km/h 37 % 0.0 mm
13:34 34.1 °C 17.3 °C 1016.8 hPa SSW 9.3 km/h 9.3 km/h 37 % 0.0 mm
13:39 33.8 °C 17.1 °C 1016.8 hPa SW 13.0 km/h 13.0 km/h 37 % 0.0 mm
13:44 33.5 °C 16.8 °C 1016.8 hPa ENE 9.3 km/h 9.3 km/h 37 % 0.0 mm
13:49 34.2 °C 17.4 °C 1016.8 hPa SSW 9.7 km/h 9.7 km/h 37 % 0.0 mm
13:54 34.6 °C 17.3 °C 1016.8 hPa SSW 5.6 km/h 5.6 km/h 36 % 0.0 mm
13:59 34.4 °C 17.6 °C 1015.8 hPa SW 7.4 km/h 8.7 km/h 37 % 0.0 mm
14:04 34.5 °C 17.3 °C 1015.8 hPa SW 9.0 km/h 9.0 km/h 36 % 0.0 mm
14:09 34.4 °C 17.2 °C 1015.8 hPa WSW 9.3 km/h 9.3 km/h 36 % 0.0 mm
14:14 34.7 °C 17.4 °C 1015.8 hPa South 13.0 km/h 13.0 km/h 36 % 0.0 mm
14:19 34.2 °C 17.0 °C 1015.8 hPa SW 13.0 km/h 13.0 km/h 36 % 0.0 mm
14:24 34.3 °C 17.1 °C 1015.8 hPa SW 9.3 km/h 9.3 km/h 36 % 0.0 mm
14:29 34.2 °C 16.6 °C 1015.8 hPa WSW 11.1 km/h 11.1 km/h 35 % 0.0 mm
14:34 34.5 °C 16.8 °C 1015.8 hPa SSE 16.9 km/h 16.9 km/h 35 % 0.0 mm
14:39 34.2 °C 16.1 °C 1015.8 hPa SW 11.1 km/h 11.1 km/h 34 % 0.0 mm
14:44 34.5 °C 16.8 °C 1015.8 hPa SW 9.3 km/h 9.3 km/h 35 % 0.0 mm
14:49 34.3 °C 16.2 °C 1015.8 hPa WSW 18.5 km/h 18.5 km/h 34 % 0.0 mm
14:54 34.1 °C 16.0 °C 1015.8 hPa SSW 9.3 km/h 9.3 km/h 34 % 0.0 mm
14:59 34.1 °C 16.0 °C 1015.8 hPa WSW 13.0 km/h 13.0 km/h 34 % 0.0 mm
15:01 34.1 °C 16.0 °C 1015.8 hPa WSW 13.0 km/h 13.0 km/h 34 % 0.0 mm
15:06 33.8 °C 16.2 °C 1015.8 hPa South 9.3 km/h 9.3 km/h 35 % 0.0 mm
15:11 33.8 °C 16.2 °C 1015.8 hPa SW 9.3 km/h 9.3 km/h 35 % 0.0 mm
15:16 33.5 °C 15.9 °C 1014.8 hPa SW 16.7 km/h 16.7 km/h 35 % 0.0 mm
15:21 33.5 °C 15.9 °C 1014.8 hPa SW 20.4 km/h 20.4 km/h 35 % 0.0 mm
15:26 32.7 °C 15.7 °C 1014.8 hPa SSW 14.8 km/h 14.8 km/h 36 % 0.0 mm
15:31 33.3 °C 16.2 °C 1015.8 hPa SW 20.9 km/h 20.9 km/h 36 % 0.0 mm
15:36 32.9 °C 15.8 °C 1015.8 hPa WNW 14.8 km/h 14.8 km/h 36 % 0.0 mm
15:41 33.0 °C 15.9 °C 1015.8 hPa SSW 11.1 km/h 11.1 km/h 36 % 0.0 mm
15:46 32.8 °C 16.2 °C 1014.8 hPa WSW 13.0 km/h 13.0 km/h 37 % 0.0 mm
15:51 32.6 °C 16.0 °C 1014.8 hPa SW 18.5 km/h 18.5 km/h 37 % 0.0 mm
15:56 32.2 °C 15.7 °C 1014.8 hPa South 14.8 km/h 14.8 km/h 37 % 0.0 mm
16:01 31.8 °C 15.7 °C 1014.8 hPa South 18.5 km/h 18.5 km/h 38 % 0.0 mm
16:06 31.7 °C 15.6 °C 1014.8 hPa SW 13.0 km/h 13.0 km/h 38 % 0.0 mm
16:11 32.0 °C 15.9 °C 1014.8 hPa WSW 18.5 km/h 18.5 km/h 38 % 0.0 mm
16:16 31.9 °C 15.8 °C 1015.8 hPa SSE 11.1 km/h 11.1 km/h 38 % 0.0 mm
16:21 32.1 °C 16.0 °C 1015.8 hPa South 11.1 km/h 11.1 km/h 38 % 0.0 mm
16:26 31.6 °C 15.9 °C 1015.8 hPa SSW 16.7 km/h 16.7 km/h 39 % 0.0 mm
16:31 32.1 °C 16.4 °C 1015.8 hPa SSW 13.0 km/h 13.0 km/h 39 % 0.0 mm
16:36 32.0 °C 16.3 °C 1015.8 hPa SSE 16.4 km/h 16.4 km/h 39 % 0.0 mm
16:41 32.1 °C 16.4 °C 1015.8 hPa SSE 5.6 km/h 5.6 km/h 39 % 0.0 mm
16:46 32.3 °C 16.6 °C 1014.8 hPa SSW 14.8 km/h 14.8 km/h 39 % 0.0 mm
16:51 31.9 °C 16.2 °C 1014.8 hPa WSW 9.3 km/h 9.3 km/h 39 % 0.0 mm
16:56 32.0 °C 16.7 °C 1014.8 hPa WSW 13.0 km/h 13.0 km/h 40 % 0.0 mm
17:01 31.7 °C 16.4 °C 1015.8 hPa SW 9.3 km/h 9.3 km/h 40 % 0.0 mm
17:06 31.6 °C 16.3 °C 1015.8 hPa SW 11.1 km/h 11.1 km/h 40 % 0.0 mm
17:11 31.6 °C 16.7 °C 1015.8 hPa SW 12.2 km/h 12.2 km/h 41 % 0.0 mm
17:16 31.8 °C 16.9 °C 1014.8 hPa South 16.7 km/h 16.7 km/h 41 % 0.0 mm
17:21 31.8 °C 16.9 °C 1014.8 hPa WSW 13.0 km/h 13.0 km/h 41 % 0.0 mm
17:26 31.5 °C 16.7 °C 1014.8 hPa SW 14.8 km/h 14.8 km/h 41 % 0.0 mm
17:31 31.6 °C 16.7 °C 1015.8 hPa WSW 12.6 km/h 12.6 km/h 41 % 0.0 mm
17:36 31.5 °C 16.7 °C 1015.8 hPa WSW 11.1 km/h 11.1 km/h 41 % 0.0 mm
17:41 31.6 °C 16.7 °C 1015.8 hPa SSW 9.3 km/h 9.3 km/h 41 % 0.0 mm
17:46 31.1 °C 16.7 °C 1015.8 hPa South 12.2 km/h 12.2 km/h 42 % 0.0 mm
17:51 31.2 °C 16.8 °C 1015.8 hPa WSW 11.1 km/h 11.1 km/h 42 % 0.0 mm
17:56 31.2 °C 16.8 °C 1015.8 hPa WSW 9.3 km/h 9.3 km/h 42 % 0.0 mm
18:01 31.3 °C 16.8 °C 1015.8 hPa SW 11.1 km/h 11.1 km/h 42 % 0.0 mm
18:06 31.5 °C 17.1 °C 1015.8 hPa SSW 6.9 km/h 6.9 km/h 42 % 0.0 mm
18:11 31.4 °C 16.9 °C 1015.8 hPa SW 11.1 km/h 11.1 km/h 42 % 0.0 mm
18:16 30.9 °C 16.9 °C 1014.8 hPa SW 11.1 km/h 11.1 km/h 43 % 0.0 mm
18:21 31.2 °C 16.8 °C 1014.8 hPa SW 14.8 km/h 14.8 km/h 42 % 0.0 mm
18:26 30.5 °C 16.5 °C 1014.8 hPa SW 16.7 km/h 16.7 km/h 43 % 0.0 mm
18:31 30.4 °C 16.8 °C 1015.8 hPa SW 9.3 km/h 9.3 km/h 44 % 0.0 mm
18:36 30.4 °C 16.8 °C 1015.8 hPa SW 9.7 km/h 9.7 km/h 44 % 0.0 mm
18:41 30.2 °C 16.6 °C 1015.8 hPa West 9.3 km/h 9.3 km/h 44 % 0.0 mm
18:46 30.3 °C 16.7 °C 1015.8 hPa SW 13.0 km/h 13.0 km/h 44 % 0.0 mm
18:51 29.9 °C 16.7 °C 1015.8 hPa SSW 9.5 km/h 9.5 km/h 45 % 0.0 mm
18:56 29.8 °C 16.6 °C 1015.8 hPa SW 10.0 km/h 10.0 km/h 45 % 0.0 mm
19:01 29.7 °C 16.5 °C 1015.8 hPa WSW 9.3 km/h 9.3 km/h 45 % 0.0 mm
19:06 29.6 °C 16.8 °C 1015.8 hPa SSW 11.1 km/h 11.1 km/h 46 % 0.0 mm
19:11 29.4 °C 16.6 °C 1015.8 hPa SW 14.8 km/h 14.8 km/h 46 % 0.0 mm
19:16 29.1 °C 16.6 °C 1015.8 hPa SSW 11.1 km/h 11.1 km/h 47 % 0.0 mm
19:21 29.0 °C 16.6 °C 1015.8 hPa SW 13.0 km/h 13.0 km/h 47 % 0.0 mm
19:26 28.8 °C 16.7 °C 1015.8 hPa SSW 7.9 km/h 7.9 km/h 48 % 0.0 mm
19:31 28.8 °C 16.7 °C 1015.8 hPa WSW 9.5 km/h 9.5 km/h 48 % 0.0 mm
19:36 28.5 °C 16.7 °C 1015.8 hPa SSW 11.1 km/h 11.1 km/h 49 % 0.0 mm
19:42 28.3 °C 16.6 °C 1015.8 hPa SSW 7.6 km/h 7.6 km/h 49 % 0.0 mm
19:47 28.2 °C 16.4 °C 1015.8 hPa WSW 7.4 km/h 7.4 km/h 49 % 0.0 mm
19:52 28.1 °C 16.4 °C 1015.8 hPa WSW 9.3 km/h 9.3 km/h 49 % 0.0 mm
19:53 28.1 °C 16.4 °C 1015.8 hPa WSW 9.0 km/h 9.0 km/h 49 % 0.0 mm
19:58 27.9 °C 16.5 °C 1015.8 hPa SW 9.3 km/h 9.3 km/h 50 % 0.0 mm
20:03 27.7 °C 16.3 °C 1015.8 hPa SSW 11.1 km/h 11.1 km/h 50 % 0.0 mm
20:08 27.5 °C 16.4 °C 1015.8 hPa SW 9.3 km/h 9.3 km/h 51 % 0.0 mm
20:13 27.4 °C 16.4 °C 1014.8 hPa WSW 9.7 km/h 9.7 km/h 51 % 0.0 mm
20:18 27.2 °C 16.2 °C 1014.8 hPa SW 9.5 km/h 9.5 km/h 51 % 0.0 mm
20:23 27.0 °C 16.3 °C 1014.8 hPa South 9.3 km/h 9.3 km/h 52 % 0.0 mm
20:28 26.9 °C 16.5 °C 1015.8 hPa WSW 5.6 km/h 5.6 km/h 53 % 0.0 mm
20:33 26.8 °C 16.4 °C 1015.8 hPa SW 7.4 km/h 7.4 km/h 53 % 0.0 mm
20:38 26.7 °C 16.3 °C 1015.8 hPa SW 7.4 km/h 7.4 km/h 53 % 0.0 mm
20:39 26.7 °C 16.3 °C 1015.8 hPa SW 7.4 km/h 7.4 km/h 53 % 0.0 mm
20:44 26.6 °C 16.2 °C 1015.8 hPa SW 5.0 km/h 5.0 km/h 53 % 0.0 mm
20:49 26.4 °C 16.3 °C 1015.8 hPa SW 5.6 km/h 5.6 km/h 54 % 0.0 mm
20:54 26.3 °C 16.2 °C 1015.8 hPa SW 3.7 km/h 3.7 km/h 54 % 0.0 mm
20:59 26.1 °C 16.1 °C 1015.8 hPa SSW 7.4 km/h 7.4 km/h 54 % 0.0 mm
21:04 26.0 °C 15.9 °C 1015.8 hPa WSW 5.6 km/h 5.6 km/h 54 % 0.0 mm
21:09 25.9 °C 15.9 °C 1015.8 hPa SW 5.0 km/h 5.0 km/h 54 % 0.0 mm
21:14 25.9 °C 16.2 °C 1016.8 hPa SW 3.7 km/h 3.7 km/h 55 % 0.0 mm
21:19 25.7 °C 16.0 °C 1016.8 hPa SW 3.7 km/h 3.7 km/h 55 % 0.0 mm
21:24 25.6 °C 16.2 °C 1016.8 hPa SSW 3.7 km/h 3.7 km/h 56 % 0.0 mm
21:29 25.6 °C 16.2 °C 1016.8 hPa SW 3.7 km/h   56 % 0.0 mm
21:34 25.5 °C 16.1 °C 1016.8 hPa SW 3.7 km/h 3.7 km/h 56 % 0.0 mm
21:39 25.3 °C 15.9 °C 1016.8 hPa SW 5.8 km/h 5.8 km/h 56 % 0.0 mm
21:44 25.3 °C 16.2 °C 1016.8 hPa SW 3.7 km/h 3.7 km/h 57 % 0.0 mm
21:49 25.2 °C 16.1 °C 1016.8 hPa WSW 3.7 km/h 3.7 km/h 57 % 0.0 mm
21:54 25.1 °C 16.3 °C 1016.8 hPa WSW 3.7 km/h 3.7 km/h 58 % 0.0 mm
21:59 25.0 °C 16.2 °C 1016.8 hPa WSW 3.7 km/h 3.7 km/h 58 % 0.0 mm
22:04 25.0 °C 16.4 °C 1016.8 hPa WSW 3.7 km/h 3.7 km/h 59 % 0.0 mm
22:09 24.9 °C 16.6 °C 1016.8 hPa WSW 3.7 km/h 3.7 km/h 60 % 0.0 mm
22:14 24.9 °C 16.6 °C 1016.8 hPa WSW 3.9 km/h 3.9 km/h 60 % 0.0 mm
22:19 24.8 °C 16.8 °C 1016.8 hPa WSW 3.7 km/h 3.7 km/h 61 % 0.0 mm
22:24 24.7 °C 16.7 °C 1016.8 hPa WSW 5.6 km/h 5.6 km/h 61 % 0.0 mm
22:29 24.7 °C 16.9 °C 1017.8 hPa WSW 3.7 km/h 3.7 km/h 62 % 0.0 mm
22:34 24.6 °C 16.8 °C 1017.8 hPa SW 3.7 km/h 3.7 km/h 62 % 0.0 mm
22:39 24.5 °C 17.0 °C 1017.8 hPa WSW 2.3 km/h 2.3 km/h 63 % 0.0 mm
22:44 24.4 °C 16.9 °C 1016.8 hPa West 3.9 km/h 3.9 km/h 63 % 0.0 mm
22:49 24.4 °C 16.9 °C 1016.8 hPa West 3.7 km/h 3.7 km/h 63 % 0.0 mm
22:54 24.3 °C 17.1 °C 1016.8 hPa West 3.7 km/h 3.7 km/h 64 % 0.0 mm
22:59 24.3 °C 17.1 °C 1017.8 hPa West 3.7 km/h 3.7 km/h 64 % 0.0 mm
23:04 24.2 °C 16.9 °C 1017.8 hPa West 3.7 km/h 3.7 km/h 64 % 0.0 mm
23:09 24.1 °C 17.1 °C 1017.8 hPa SW 3.7 km/h 3.7 km/h 65 % 0.0 mm
23:14 24.1 °C 17.1 °C 1017.8 hPa WNW 3.7 km/h 3.7 km/h 65 % 0.0 mm
23:19 24.0 °C 17.3 °C 1017.8 hPa WSW 3.7 km/h 3.7 km/h 66 % 0.0 mm
23:24 24.0 °C 17.3 °C 1017.8 hPa NW 1.9 km/h   66 % 0.0 mm
23:29 24.0 °C 17.3 °C 1016.8 hPa WSW 4.2 km/h 4.2 km/h 66 % 0.0 mm
23:34 23.9 °C 17.6 °C 1016.8 hPa Calm     68 % 0.0 mm
23:39 23.9 °C 17.6 °C 1016.8 hPa Calm     68 % 0.0 mm
23:44 23.8 °C 17.6 °C 1017.8 hPa West 1.9 km/h 2.3 km/h 68 % 0.0 mm
23:49 23.8 °C 17.6 °C 1017.8 hPa WSW 1.9 km/h   68 % 0.0 mm
23:54 23.7 °C 17.7 °C 1017.8 hPa Calm     69 % 0.0 mm
23:59 23.7 °C 17.7 °C 1016.8 hPa WSW 3.7 km/h 3.7 km/h 69 % 0.0 mm
Meteo Sesrovires
Elogis d' Weather Underground - 4 mb

Guio original per  Jim McMurry - jmcmurry@mwt.net Adaptat per a la plantilla per  Wim van der Kuil - Leuven-Template.eu

Trobareu la nostra informacio del temps tambe a:

Weather Underground

AWEKAS